Terminal Aerodrome Forecast
Issued by NWS

Home | Current Version | Previous Version | Text Only | Print | Product List | Glossary On
Versions: 1 2 3 4 5 6 7 8 9 10 11 12 13 14
000
FTUS43 KUNR 252300
TAFGCC
TAF
KGCC 252320Z 2600/2624 15010KT P6SM SKC
     FM260500 21015KT P6SM SCT150
     FM261500 30015KT P6SM BKN150=

USA.gov is the U.S. government's official web portal to all federal, state and local government web resources and services.